sensor_id;sensor_type;location;lat;lon;timestamp;pressure;altitude;pressure_sealevel;temperature;humidity
498;BME280;39559;48.630;9.162;2022-09-27T00:00:05;95763.84;;;8.08;100.00
498;BME280;39559;48.630;9.162;2022-09-27T00:02:31;95771.53;;;8.10;100.00
498;BME280;39559;48.630;9.162;2022-09-27T00:04:57;95753.69;;;8.05;100.00
498;BME280;39559;48.630;9.162;2022-09-27T00:07:23;95760.31;;;8.09;100.00
498;BME280;39559;48.630;9.162;2022-09-27T00:09:49;95756.34;;;8.03;100.00
498;BME280;39559;48.630;9.162;2022-09-27T00:14:20;95756.09;;;8.08;100.00
498;BME280;39559;48.630;9.162;2022-09-27T00:16:46;95757.19;;;8.04;100.00
498;BME280;39559;48.630;9.162;2022-09-27T00:19:14;95752.00;;;8.04;100.00
498;BME280;39559;48.630;9.162;2022-09-27T00:21:41;95752.88;;;8.04;100.00
498;BME280;39559;48.630;9.162;2022-09-27T00:24:15;95753.88;;;8.02;100.00
498;BME280;39559;48.630;9.162;2022-09-27T00:26:41;95740.13;;;8.01;100.00
498;BME280;39559;48.630;9.162;2022-09-27T00:29:08;95741.22;;;7.97;100.00
498;BME280;39559;48.630;9.162;2022-09-27T00:31:35;95744.81;;;7.95;100.00
498;BME280;39559;48.630;9.162;2022-09-27T00:34:20;95741.97;;;7.99;100.00
498;BME280;39559;48.630;9.162;2022-09-27T00:38:48;95733.47;;;7.97;100.00
498;BME280;39559;48.630;9.162;2022-09-27T00:41:22;95737.53;;;8.01;100.00
498;BME280;39559;48.630;9.162;2022-09-27T00:43:55;95726.38;;;8.01;100.00
498;BME280;39559;48.630;9.162;2022-09-27T00:46:32;95732.38;;;8.01;100.00
498;BME280;39559;48.630;9.162;2022-09-27T00:49:34;95731.53;;;8.01;100.00
498;BME280;39559;48.630;9.162;2022-09-27T00:52:14;95722.03;;;8.01;100.00
498;BME280;39559;48.630;9.162;2022-09-27T00:54:47;95727.00;;;8.04;100.00
498;BME280;39559;48.630;9.162;2022-09-27T00:57:24;95720.09;;;8.05;100.00
498;BME280;39559;48.630;9.162;2022-09-27T01:02:16;95724.44;;;8.04;100.00
498;BME280;39559;48.630;9.162;2022-09-27T01:04:43;95717.69;;;8.02;100.00
498;BME280;39559;48.630;9.162;2022-09-27T01:07:11;95725.63;;;7.99;100.00
498;BME280;39559;48.630;9.162;2022-09-27T01:09:38;95717.88;;;7.99;100.00
498;BME280;39559;48.630;9.162;2022-09-27T01:15:13;95725.16;;;8.06;100.00
498;BME280;39559;48.630;9.162;2022-09-27T01:26:53;95717.97;;;8.12;100.00
498;BME280;39559;48.630;9.162;2022-09-27T01:32:33;95714.66;;;8.10;100.00
498;BME280;39559;48.630;9.162;2022-09-27T01:43:16;95722.19;;;8.13;100.00
498;BME280;39559;48.630;9.162;2022-09-27T01:45:55;95714.44;;;8.13;100.00
498;BME280;39559;48.630;9.162;2022-09-27T01:50:26;95711.75;;;8.14;100.00
498;BME280;39559;48.630;9.162;2022-09-27T01:53:02;95696.97;;;8.16;100.00
498;BME280;39559;48.630;9.162;2022-09-27T01:55:32;95698.75;;;8.16;100.00
498;BME280;39559;48.630;9.162;2022-09-27T01:58:05;95701.03;;;8.20;100.00
498;BME280;39559;48.630;9.162;2022-09-27T02:00:36;95702.06;;;8.18;100.00
498;BME280;39559;48.630;9.162;2022-09-27T02:03:13;95706.19;;;8.20;100.00
498;BME280;39559;48.630;9.162;2022-09-27T02:05:48;95703.81;;;8.17;100.00
498;BME280;39559;48.630;9.162;2022-09-27T02:08:49;95707.22;;;8.18;100.00
498;BME280;39559;48.630;9.162;2022-09-27T02:11:17;95703.72;;;8.19;100.00
498;BME280;39559;48.630;9.162;2022-09-27T02:14:24;95707.22;;;8.18;100.00
498;BME280;39559;48.630;9.162;2022-09-27T02:16:55;95712.41;;;8.18;100.00
498;BME280;39559;48.630;9.162;2022-09-27T02:22:31;95727.75;;;8.21;100.00
498;BME280;39559;48.630;9.162;2022-09-27T02:28:28;95743.59;;;8.29;100.00
498;BME280;39559;48.630;9.162;2022-09-27T02:30:55;95750.59;;;8.41;100.00
498;BME280;39559;48.630;9.162;2022-09-27T02:33:27;95740.94;;;8.45;100.00
498;BME280;39559;48.630;9.162;2022-09-27T02:38:11;95732.53;;;8.27;100.00
498;BME280;39559;48.630;9.162;2022-09-27T02:40:45;95733.09;;;8.18;100.00
498;BME280;39559;48.630;9.162;2022-09-27T02:43:13;95739.00;;;8.20;100.00
498;BME280;39559;48.630;9.162;2022-09-27T02:46:13;95748.59;;;8.18;100.00
498;BME280;39559;48.630;9.162;2022-09-27T02:55:13;95756.34;;;8.18;100.00
498;BME280;39559;48.630;9.162;2022-09-27T02:57:58;95760.63;;;8.19;100.00
498;BME280;39559;48.630;9.162;2022-09-27T03:07:10;95766.16;;;8.13;100.00
498;BME280;39559;48.630;9.162;2022-09-27T03:09:45;95775.19;;;8.05;100.00
498;BME280;39559;48.630;9.162;2022-09-27T03:12:13;95770.75;;;8.07;100.00
498;BME280;39559;48.630;9.162;2022-09-27T03:14:45;95770.41;;;7.99;100.00
498;BME280;39559;48.630;9.162;2022-09-27T03:17:11;95776.47;;;7.98;100.00
498;BME280;39559;48.630;9.162;2022-09-27T03:19:36;95780.75;;;7.99;100.00
498;BME280;39559;48.630;9.162;2022-09-27T03:22:02;95782.13;;;7.91;100.00
498;BME280;39559;48.630;9.162;2022-09-27T03:26:07;95793.66;;;7.85;100.00
498;BME280;39559;48.630;9.162;2022-09-27T03:28:32;95791.97;;;7.84;100.00
498;BME280;39559;48.630;9.162;2022-09-27T03:30:59;95796.31;;;7.83;100.00
498;BME280;39559;48.630;9.162;2022-09-27T03:33:24;95799.94;;;7.81;100.00
498;BME280;39559;48.630;9.162;2022-09-27T03:35:51;95803.06;;;7.72;100.00
498;BME280;39559;48.630;9.162;2022-09-27T03:38:17;95811.78;;;7.69;100.00
498;BME280;39559;48.630;9.162;2022-09-27T03:40:43;95795.53;;;7.53;100.00
498;BME280;39559;48.630;9.162;2022-09-27T03:43:09;95806.06;;;7.64;100.00
498;BME280;39559;48.630;9.162;2022-09-27T03:45:34;95807.16;;;7.60;100.00
498;BME280;39559;48.630;9.162;2022-09-27T03:50:09;95802.38;;;7.54;100.00
498;BME280;39559;48.630;9.162;2022-09-27T03:52:35;95805.59;;;7.57;100.00
498;BME280;39559;48.630;9.162;2022-09-27T03:55:02;95798.00;;;7.54;100.00
498;BME280;39559;48.630;9.162;2022-09-27T03:57:27;95794.69;;;7.52;100.00
498;BME280;39559;48.630;9.162;2022-09-27T03:59:55;95798.28;;;7.49;100.00
498;BME280;39559;48.630;9.162;2022-09-27T04:02:22;95798.28;;;7.49;100.00
498;BME280;39559;48.630;9.162;2022-09-27T04:04:48;95792.28;;;7.49;100.00
498;BME280;39559;48.630;9.162;2022-09-27T04:07:13;95802.59;;;7.49;100.00
498;BME280;39559;48.630;9.162;2022-09-27T04:09:39;95798.09;;;7.53;100.00
498;BME280;39559;48.630;9.162;2022-09-27T04:14:03;95805.09;;;7.50;100.00
498;BME280;39559;48.630;9.162;2022-09-27T04:16:30;95805.94;;;7.51;100.00
498;BME280;39559;48.630;9.162;2022-09-27T04:18:57;95798.38;;;7.48;100.00
498;BME280;39559;48.630;9.162;2022-09-27T04:21:22;95816.25;;;7.51;100.00
498;BME280;39559;48.630;9.162;2022-09-27T04:23:48;95812.19;;;7.47;100.00
498;BME280;39559;48.630;9.162;2022-09-27T04:26:14;95810.63;;;7.44;100.00
498;BME280;39559;48.630;9.162;2022-09-27T04:28:39;95809.13;;;7.40;100.00
498;BME280;39559;48.630;9.162;2022-09-27T04:31:05;95826.38;;;7.40;100.00
498;BME280;39559;48.630;9.162;2022-09-27T04:33:31;95812.00;;;7.36;100.00
498;BME280;39559;48.630;9.162;2022-09-27T04:38:03;95816.22;;;7.37;100.00
498;BME280;39559;48.630;9.162;2022-09-27T04:40:29;95823.06;;;7.38;100.00
498;BME280;39559;48.630;9.162;2022-09-27T04:42:54;95824.97;;;7.34;100.00
498;BME280;39559;48.630;9.162;2022-09-27T04:45:21;95819.00;;;7.34;100.00
498;BME280;39559;48.630;9.162;2022-09-27T04:47:48;95825.63;;;7.38;100.00
498;BME280;39559;48.630;9.162;2022-09-27T04:50:15;95831.16;;;7.32;100.00
498;BME280;39559;48.630;9.162;2022-09-27T04:52:49;95836.50;;;7.28;100.00
498;BME280;39559;48.630;9.162;2022-09-27T04:55:15;95837.31;;;7.29;100.00
498;BME280;39559;48.630;9.162;2022-09-27T04:57:41;95839.81;;;7.30;100.00
498;BME280;39559;48.630;9.162;2022-09-27T05:02:02;95839.06;;;7.28;100.00
498;BME280;39559;48.630;9.162;2022-09-27T05:04:27;95846.91;;;7.27;100.00
498;BME280;39559;48.630;9.162;2022-09-27T05:06:54;95846.00;;;7.28;100.00
498;BME280;39559;48.630;9.162;2022-09-27T05:09:19;95864.88;;;7.28;100.00
498;BME280;39559;48.630;9.162;2022-09-27T05:11:45;95866.66;;;7.28;100.00
498;BME280;39559;48.630;9.162;2022-09-27T05:14:10;95860.63;;;7.27;100.00
498;BME280;39559;48.630;9.162;2022-09-27T05:16:38;95860.81;;;7.24;100.00
498;BME280;39559;48.630;9.162;2022-09-27T05:19:03;95869.31;;;7.26;100.00
498;BME280;39559;48.630;9.162;2022-09-27T05:21:29;95873.72;;;7.24;100.00
498;BME280;39559;48.630;9.162;2022-09-27T05:26:07;95879.47;;;7.29;100.00
498;BME280;39559;48.630;9.162;2022-09-27T05:28:33;95886.94;;;7.34;100.00
498;BME280;39559;48.630;9.162;2022-09-27T05:31:00;95887.31;;;7.28;100.00
498;BME280;39559;48.630;9.162;2022-09-27T05:33:26;95889.31;;;7.23;100.00
498;BME280;39559;48.630;9.162;2022-09-27T05:35:56;95896.97;;;7.24;100.00
498;BME280;39559;48.630;9.162;2022-09-27T05:38:22;95889.38;;;7.21;100.00
498;BME280;39559;48.630;9.162;2022-09-27T05:40:49;95892.63;;;7.25;100.00
498;BME280;39559;48.630;9.162;2022-09-27T05:43:18;95907.09;;;7.27;100.00
498;BME280;39559;48.630;9.162;2022-09-27T05:45:45;95913.72;;;7.17;100.00
498;BME280;39559;48.630;9.162;2022-09-27T05:49:59;95915.63;;;7.14;100.00
498;BME280;39559;48.630;9.162;2022-09-27T05:52:25;95919.84;;;7.15;100.00
498;BME280;39559;48.630;9.162;2022-09-27T05:54:50;95925.94;;;7.14;100.00
498;BME280;39559;48.630;9.162;2022-09-27T05:57:16;95921.75;;;7.11;100.00
498;BME280;39559;48.630;9.162;2022-09-27T05:59:42;95932.75;;;7.15;100.00
498;BME280;39559;48.630;9.162;2022-09-27T06:02:10;95940.50;;;7.15;100.00
498;BME280;39559;48.630;9.162;2022-09-27T06:04:36;95932.25;;;7.24;100.00
498;BME280;39559;48.630;9.162;2022-09-27T06:07:01;95940.84;;;7.24;100.00
498;BME280;39559;48.630;9.162;2022-09-27T06:09:27;95940.19;;;7.21;100.00
498;BME280;39559;48.630;9.162;2022-09-27T06:13:58;95950.34;;;7.24;100.00
498;BME280;39559;48.630;9.162;2022-09-27T06:16:23;95947.59;;;7.27;100.00
498;BME280;39559;48.630;9.162;2022-09-27T06:18:49;95941.53;;;7.28;100.00
498;BME280;39559;48.630;9.162;2022-09-27T06:21:16;95942.19;;;7.32;100.00
498;BME280;39559;48.630;9.162;2022-09-27T06:23:41;95953.06;;;7.37;100.00
498;BME280;39559;48.630;9.162;2022-09-27T06:26:08;95952.03;;;7.41;100.00
498;BME280;39559;48.630;9.162;2022-09-27T06:28:35;95957.78;;;7.46;100.00
498;BME280;39559;48.630;9.162;2022-09-27T06:31:01;95959.25;;;7.50;100.00
498;BME280;39559;48.630;9.162;2022-09-27T06:33:29;95968.66;;;7.51;100.00
498;BME280;39559;48.630;9.162;2022-09-27T06:37:57;95971.16;;;7.53;100.00
498;BME280;39559;48.630;9.162;2022-09-27T06:40:22;95974.75;;;7.50;100.00
498;BME280;39559;48.630;9.162;2022-09-27T06:42:51;95977.25;;;7.52;100.00
498;BME280;39559;48.630;9.162;2022-09-27T06:45:17;95984.25;;;7.49;100.00
498;BME280;39559;48.630;9.162;2022-09-27T06:47:43;95981.75;;;7.48;100.00
498;BME280;39559;48.630;9.162;2022-09-27T06:50:08;95984.06;;;7.53;100.00
498;BME280;39559;48.630;9.162;2022-09-27T06:52:35;95982.44;;;7.52;100.00
498;BME280;39559;48.630;9.162;2022-09-27T06:55:03;95984.66;;;7.58;100.00
498;BME280;39559;48.630;9.162;2022-09-27T06:57:30;95988.66;;;7.47;100.00
498;BME280;39559;48.630;9.162;2022-09-27T07:01:55;95997.25;;;7.48;100.00
498;BME280;39559;48.630;9.162;2022-09-27T07:04:20;95994.25;;;7.56;100.00
498;BME280;39559;48.630;9.162;2022-09-27T07:06:46;96000.59;;;7.66;100.00
498;BME280;39559;48.630;9.162;2022-09-27T07:09:11;96002.59;;;7.77;100.00
498;BME280;39559;48.630;9.162;2022-09-27T07:11:37;96004.25;;;7.78;100.00
498;BME280;39559;48.630;9.162;2022-09-27T07:14:03;96008.91;;;7.87;100.00
498;BME280;39559;48.630;9.162;2022-09-27T07:16:30;96012.31;;;7.87;100.00
498;BME280;39559;48.630;9.162;2022-09-27T07:18:59;96017.59;;;7.86;100.00
498;BME280;39559;48.630;9.162;2022-09-27T07:21:25;96015.63;;;8.05;100.00
498;BME280;39559;48.630;9.162;2022-09-27T07:25:54;96016.78;;;8.16;100.00
498;BME280;39559;48.630;9.162;2022-09-27T07:28:20;96019.94;;;8.21;100.00
498;BME280;39559;48.630;9.162;2022-09-27T07:30:45;96022.53;;;8.21;100.00
498;BME280;39559;48.630;9.162;2022-09-27T07:33:12;96016.66;;;8.33;100.00
498;BME280;39559;48.630;9.162;2022-09-27T07:35:41;96024.75;;;8.27;100.00
498;BME280;39559;48.630;9.162;2022-09-27T07:38:08;96033.53;;;8.24;100.00
498;BME280;39559;48.630;9.162;2022-09-27T07:40:38;96033.44;;;8.26;100.00
498;BME280;39559;48.630;9.162;2022-09-27T07:43:03;96031.81;;;8.39;100.00
498;BME280;39559;48.630;9.162;2022-09-27T07:45:30;96040.84;;;8.48;100.00
498;BME280;39559;48.630;9.162;2022-09-27T07:49:53;96038.81;;;8.53;100.00
498;BME280;39559;48.630;9.162;2022-09-27T07:52:19;96036.72;;;8.74;100.00
498;BME280;39559;48.630;9.162;2022-09-27T07:54:45;96034.97;;;8.75;100.00
498;BME280;39559;48.630;9.162;2022-09-27T07:57:12;96046.25;;;8.74;100.00
498;BME280;39559;48.630;9.162;2022-09-27T07:59:38;96048.84;;;8.74;100.00
498;BME280;39559;48.630;9.162;2022-09-27T08:02:04;96055.94;;;8.70;100.00
498;BME280;39559;48.630;9.162;2022-09-27T08:04:30;96060.34;;;8.54;100.00
498;BME280;39559;48.630;9.162;2022-09-27T08:06:55;96066.06;;;8.44;100.00
498;BME280;39559;48.630;9.162;2022-09-27T08:09:21;96067.38;;;8.52;100.00
498;BME280;39559;48.630;9.162;2022-09-27T08:13:52;96080.59;;;8.61;100.00
498;BME280;39559;48.630;9.162;2022-09-27T08:16:18;96079.41;;;8.67;100.00
498;BME280;39559;48.630;9.162;2022-09-27T08:18:43;96077.22;;;8.75;100.00
498;BME280;39559;48.630;9.162;2022-09-27T08:21:09;96080.19;;;8.83;100.00
498;BME280;39559;48.630;9.162;2022-09-27T08:23:35;96089.72;;;8.83;100.00
498;BME280;39559;48.630;9.162;2022-09-27T08:26:01;96083.22;;;8.76;100.00
498;BME280;39559;48.630;9.162;2022-09-27T08:28:27;96084.94;;;8.61;100.00
498;BME280;39559;48.630;9.162;2022-09-27T08:30:56;96093.53;;;8.61;100.00
498;BME280;39559;48.630;9.162;2022-09-27T08:33:23;96087.84;;;8.71;100.00
498;BME280;39559;48.630;9.162;2022-09-27T08:37:59;96095.94;;;8.95;100.00
498;BME280;39559;48.630;9.162;2022-09-27T08:40:49;96093.56;;;9.06;100.00
498;BME280;39559;48.630;9.162;2022-09-27T08:44:24;96103.19;;;9.04;100.00
498;BME280;39559;48.630;9.162;2022-09-27T08:49:22;96114.78;;;8.82;100.00
498;BME280;39559;48.630;9.162;2022-09-27T08:51:50;96118.59;;;8.61;100.00
498;BME280;39559;48.630;9.162;2022-09-27T08:54:24;96126.69;;;8.39;100.00
498;BME280;39559;48.630;9.162;2022-09-27T08:56:52;96114.44;;;8.26;100.00
498;BME280;39559;48.630;9.162;2022-09-27T09:01:50;96109.28;;;8.26;100.00
498;BME280;39559;48.630;9.162;2022-09-27T09:04:23;96113.63;;;8.26;100.00
498;BME280;39559;48.630;9.162;2022-09-27T09:13:12;96107.66;;;8.24;100.00
498;BME280;39559;48.630;9.162;2022-09-27T09:21:40;96109.22;;;8.58;100.00
498;BME280;39559;48.630;9.162;2022-09-27T09:33:55;96104.13;;;9.32;100.00
498;BME280;39559;48.630;9.162;2022-09-27T09:36:38;96116.97;;;9.48;100.00
498;BME280;39559;48.630;9.162;2022-09-27T09:39:43;96109.66;;;9.54;100.00
498;BME280;39559;48.630;9.162;2022-09-27T09:42:17;96113.72;;;9.73;100.00
498;BME280;39559;48.630;9.162;2022-09-27T09:44:53;96111.22;;;9.71;100.00
498;BME280;39559;48.630;9.162;2022-09-27T09:49:52;96103.38;;;10.14;100.00
498;BME280;39559;48.630;9.162;2022-09-27T09:52:22;96098.34;;;10.26;100.00
498;BME280;39559;48.630;9.162;2022-09-27T09:54:55;96099.38;;;10.23;100.00
498;BME280;39559;48.630;9.162;2022-09-27T09:57:27;96099.78;;;10.17;100.00
498;BME280;39559;48.630;9.162;2022-09-27T10:00:05;96093.78;;;10.02;100.00
498;BME280;39559;48.630;9.162;2022-09-27T10:02:41;96086.41;;;9.82;100.00
498;BME280;39559;48.630;9.162;2022-09-27T10:05:13;96082.41;;;9.90;100.00
498;BME280;39559;48.630;9.162;2022-09-27T10:07:39;96077.16;;;9.77;100.00
498;BME280;39559;48.630;9.162;2022-09-27T10:10:06;96084.47;;;9.71;100.00
498;BME280;39559;48.630;9.162;2022-09-27T10:13:46;96078.31;;;9.45;100.00
498;BME280;39559;48.630;9.162;2022-09-27T10:16:16;96077.00;;;9.23;100.00
498;BME280;39559;48.630;9.162;2022-09-27T10:18:42;96086.91;;;9.31;100.00
498;BME280;39559;48.630;9.162;2022-09-27T10:21:31;96076.72;;;9.28;100.00
498;BME280;39559;48.630;9.162;2022-09-27T10:26:36;96075.44;;;9.49;100.00
498;BME280;39559;48.630;9.162;2022-09-27T10:31:45;96082.28;;;9.65;100.00
498;BME280;39559;48.630;9.162;2022-09-27T10:34:33;96083.19;;;9.64;100.00
498;BME280;39559;48.630;9.162;2022-09-27T10:37:44;96069.47;;;9.76;100.00
498;BME280;39559;48.630;9.162;2022-09-27T10:40:31;96072.06;;;9.76;100.00
498;BME280;39559;48.630;9.162;2022-09-27T10:42:58;96068.09;;;9.85;100.00
498;BME280;39559;48.630;9.162;2022-09-27T10:45:31;96060.88;;;10.17;100.00
498;BME280;39559;48.630;9.162;2022-09-27T10:48:01;96061.09;;;10.54;100.00
498;BME280;39559;48.630;9.162;2022-09-27T10:50:31;96054.59;;;10.61;100.00
498;BME280;39559;48.630;9.162;2022-09-27T10:53:13;96048.25;;;10.65;100.00
498;BME280;39559;48.630;9.162;2022-09-27T10:55:41;96062.69;;;10.69;100.00
498;BME280;39559;48.630;9.162;2022-09-27T10:58:19;96050.38;;;11.24;100.00
498;BME280;39559;48.630;9.162;2022-09-27T11:01:44;96045.78;;;11.15;100.00
498;BME280;39559;48.630;9.162;2022-09-27T11:04:38;96052.13;;;11.11;100.00
498;BME280;39559;48.630;9.162;2022-09-27T11:07:14;96043.00;;;11.05;100.00
498;BME280;39559;48.630;9.162;2022-09-27T11:09:45;96034.38;;;11.05;99.53
498;BME280;39559;48.630;9.162;2022-09-27T11:12:13;96039.47;;;10.93;100.00
498;BME280;39559;48.630;9.162;2022-09-27T11:14:40;96037.78;;;10.92;100.00
498;BME280;39559;48.630;9.162;2022-09-27T11:17:42;96039.84;;;10.74;100.00
498;BME280;39559;48.630;9.162;2022-09-27T11:20:30;96041.72;;;10.72;100.00
498;BME280;39559;48.630;9.162;2022-09-27T11:26:09;96033.00;;;10.73;100.00
498;BME280;39559;48.630;9.162;2022-09-27T11:29:18;96039.38;;;10.55;100.00
498;BME280;39559;48.630;9.162;2022-09-27T11:32:12;96029.59;;;10.33;100.00
498;BME280;39559;48.630;9.162;2022-09-27T11:35:09;96030.25;;;10.22;100.00
498;BME280;39559;48.630;9.162;2022-09-27T11:38:01;96029.53;;;10.20;100.00
498;BME280;39559;48.630;9.162;2022-09-27T11:49:52;96015.38;;;10.38;100.00
498;BME280;39559;48.630;9.162;2022-09-27T11:59:04;96002.53;;;10.10;100.00
498;BME280;39559;48.630;9.162;2022-09-27T12:01:16;96009.97;;;10.02;100.00
498;BME280;39559;48.630;9.162;2022-09-27T12:03:49;96002.94;;;9.89;100.00
498;BME280;39559;48.630;9.162;2022-09-27T12:06:57;96010.25;;;9.70;100.00
498;BME280;39559;48.630;9.162;2022-09-27T12:09:32;96017.66;;;9.61;100.00
498;BME280;39559;48.630;9.162;2022-09-27T12:13:48;96020.56;;;9.43;100.00
498;BME280;39559;48.630;9.162;2022-09-27T12:16:16;96028.06;;;9.33;100.00
498;BME280;39559;48.630;9.162;2022-09-27T12:18:45;96032.06;;;9.10;100.00
498;BME280;39559;48.630;9.162;2022-09-27T12:21:12;96030.66;;;8.90;100.00
498;BME280;39559;48.630;9.162;2022-09-27T12:23:49;96031.06;;;8.68;100.00
498;BME280;39559;48.630;9.162;2022-09-27T12:26:35;96030.91;;;8.71;100.00
498;BME280;39559;48.630;9.162;2022-09-27T12:29:27;96026.38;;;8.74;100.00
498;BME280;39559;48.630;9.162;2022-09-27T12:32:12;96037.00;;;8.70;100.00
498;BME280;39559;48.630;9.162;2022-09-27T12:40:36;96027.22;;;8.89;100.00
498;BME280;39559;48.630;9.162;2022-09-27T12:49:25;96025.91;;;8.82;100.00
498;BME280;39559;48.630;9.162;2022-09-27T12:51:58;96014.81;;;8.80;100.00
498;BME280;39559;48.630;9.162;2022-09-27T12:57:25;96013.72;;;8.84;100.00
498;BME280;39559;48.630;9.162;2022-09-27T13:04:34;96003.56;;;9.66;100.00
498;BME280;39559;48.630;9.162;2022-09-27T13:10:06;95998.00;;;9.30;100.00
498;BME280;39559;48.630;9.162;2022-09-27T13:12:38;95996.06;;;9.34;100.00
498;BME280;39559;48.630;9.162;2022-09-27T13:15:24;95994.44;;;9.87;100.00
498;BME280;39559;48.630;9.162;2022-09-27T13:17:56;95985.56;;;10.31;100.00
498;BME280;39559;48.630;9.162;2022-09-27T13:28:34;95995.41;;;9.86;100.00
498;BME280;39559;48.630;9.162;2022-09-27T13:34:41;95988.19;;;10.04;100.00
498;BME280;39559;48.630;9.162;2022-09-27T13:37:44;95995.50;;;9.85;100.00
498;BME280;39559;48.630;9.162;2022-09-27T13:46:13;95995.44;;;9.72;100.00
498;BME280;39559;48.630;9.162;2022-09-27T13:49:38;95994.28;;;10.30;100.00
498;BME280;39559;48.630;9.162;2022-09-27T13:52:30;95992.75;;;10.01;100.00
498;BME280;39559;48.630;9.162;2022-09-27T13:55:03;95991.81;;;10.02;100.00
498;BME280;39559;48.630;9.162;2022-09-27T13:57:41;95983.31;;;10.40;100.00
498;BME280;39559;48.630;9.162;2022-09-27T14:00:22;95985.41;;;10.73;100.00
498;BME280;39559;48.630;9.162;2022-09-27T14:05:22;95976.53;;;10.24;100.00
498;BME280;39559;48.630;9.162;2022-09-27T14:07:50;95977.69;;;10.06;100.00
498;BME280;39559;48.630;9.162;2022-09-27T14:10:18;95979.25;;;9.95;100.00
498;BME280;39559;48.630;9.162;2022-09-27T14:13:31;95975.16;;;9.91;100.00
498;BME280;39559;48.630;9.162;2022-09-27T14:15:59;95978.75;;;9.76;100.00
498;BME280;39559;48.630;9.162;2022-09-27T14:18:27;95980.78;;;9.71;100.00
498;BME280;39559;48.630;9.162;2022-09-27T14:21:20;95982.16;;;9.76;100.00
498;BME280;39559;48.630;9.162;2022-09-27T14:23:46;95989.94;;;9.76;100.00
498;BME280;39559;48.630;9.162;2022-09-27T14:26:24;95997.13;;;9.86;100.00
498;BME280;39559;48.630;9.162;2022-09-27T14:28:51;95994.13;;;9.79;100.00
498;BME280;39559;48.630;9.162;2022-09-27T14:31:20;96002.66;;;9.67;100.00
498;BME280;39559;48.630;9.162;2022-09-27T14:33:47;96000.66;;;9.43;100.00
498;BME280;39559;48.630;9.162;2022-09-27T14:37:27;96011.59;;;9.48;100.00
498;BME280;39559;48.630;9.162;2022-09-27T14:42:23;96008.13;;;9.62;100.00
498;BME280;39559;48.630;9.162;2022-09-27T14:44:50;96007.44;;;9.73;100.00
498;BME280;39559;48.630;9.162;2022-09-27T14:47:20;96007.19;;;10.05;100.00
498;BME280;39559;48.630;9.162;2022-09-27T14:50:26;96006.78;;;10.38;100.00
498;BME280;39559;48.630;9.162;2022-09-27T14:52:57;96009.91;;;10.16;100.00
498;BME280;39559;48.630;9.162;2022-09-27T14:55:26;96020.00;;;9.93;100.00
498;BME280;39559;48.630;9.162;2022-09-27T14:58:01;96019.09;;;9.80;100.00
498;BME280;39559;48.630;9.162;2022-09-27T15:01:25;96027.22;;;9.61;100.00
498;BME280;39559;48.630;9.162;2022-09-27T15:03:51;96024.53;;;9.48;100.00
498;BME280;39559;48.630;9.162;2022-09-27T15:06:18;96013.69;;;9.56;100.00
498;BME280;39559;48.630;9.162;2022-09-27T15:08:45;96008.06;;;9.49;100.00
498;BME280;39559;48.630;9.162;2022-09-27T15:11:15;96004.31;;;9.68;100.00
498;BME280;39559;48.630;9.162;2022-09-27T15:13:42;96016.75;;;9.63;100.00
498;BME280;39559;48.630;9.162;2022-09-27T15:16:16;96028.34;;;9.43;100.00
498;BME280;39559;48.630;9.162;2022-09-27T15:18:48;96021.41;;;9.43;100.00
498;BME280;39559;48.630;9.162;2022-09-27T15:25:37;96016.25;;;9.70;100.00
498;BME280;39559;48.630;9.162;2022-09-27T15:28:17;96022.13;;;9.45;100.00
498;BME280;39559;48.630;9.162;2022-09-27T15:30:54;96031.22;;;9.38;100.00
498;BME280;39559;48.630;9.162;2022-09-27T15:35:53;96032.16;;;9.37;100.00
498;BME280;39559;48.630;9.162;2022-09-27T15:43:25;96035.91;;;9.31;100.00
498;BME280;39559;48.630;9.162;2022-09-27T15:45:56;96034.66;;;9.24;100.00
498;BME280;39559;48.630;9.162;2022-09-27T15:49:31;96038.25;;;9.21;100.00
498;BME280;39559;48.630;9.162;2022-09-27T15:52:01;96047.59;;;9.24;100.00
498;BME280;39559;48.630;9.162;2022-09-27T15:54:30;96048.78;;;9.18;100.00
498;BME280;39559;48.630;9.162;2022-09-27T15:57:00;96049.25;;;9.11;100.00
498;BME280;39559;48.630;9.162;2022-09-27T15:59:30;96046.00;;;9.07;100.00
498;BME280;39559;48.630;9.162;2022-09-27T16:01:59;96047.03;;;9.05;100.00
498;BME280;39559;48.630;9.162;2022-09-27T16:04:27;96053.34;;;9.00;100.00
498;BME280;39559;48.630;9.162;2022-09-27T16:06:57;96065.63;;;9.11;100.00
498;BME280;39559;48.630;9.162;2022-09-27T16:09:25;96068.31;;;9.10;100.00
498;BME280;39559;48.630;9.162;2022-09-27T16:13:17;96065.34;;;9.01;100.00
498;BME280;39559;48.630;9.162;2022-09-27T16:15:43;96073.41;;;8.97;100.00
498;BME280;39559;48.630;9.162;2022-09-27T16:18:10;96073.41;;;8.97;100.00
498;BME280;39559;48.630;9.162;2022-09-27T16:20:35;96069.38;;;8.91;100.00
498;BME280;39559;48.630;9.162;2022-09-27T16:23:02;96069.38;;;8.91;100.00
498;BME280;39559;48.630;9.162;2022-09-27T16:25:28;96073.25;;;8.84;100.00
498;BME280;39559;48.630;9.162;2022-09-27T16:27:58;96080.47;;;8.79;100.00
498;BME280;39559;48.630;9.162;2022-09-27T16:30:24;96072.06;;;8.75;100.00
498;BME280;39559;48.630;9.162;2022-09-27T16:32:50;96078.13;;;8.74;100.00
498;BME280;39559;48.630;9.162;2022-09-27T16:37:17;96072.47;;;8.68;100.00
498;BME280;39559;48.630;9.162;2022-09-27T16:39:43;96072.25;;;8.56;100.00
498;BME280;39559;48.630;9.162;2022-09-27T16:42:09;96075.88;;;8.54;100.00
498;BME280;39559;48.630;9.162;2022-09-27T16:44:34;96066.63;;;8.50;100.00
498;BME280;39559;48.630;9.162;2022-09-27T16:47:03;96063.09;;;8.51;100.00
498;BME280;39559;48.630;9.162;2022-09-27T16:49:30;96066.13;;;8.43;100.00
498;BME280;39559;48.630;9.162;2022-09-27T16:52:14;96063.69;;;8.40;100.00
498;BME280;39559;48.630;9.162;2022-09-27T16:54:40;96061.38;;;8.35;100.00
498;BME280;39559;48.630;9.162;2022-09-27T16:57:06;96062.28;;;8.34;100.00
498;BME280;39559;48.630;9.162;2022-09-27T17:01:16;96066.41;;;8.22;100.00
498;BME280;39559;48.630;9.162;2022-09-27T17:03:43;96075.00;;;8.23;100.00
498;BME280;39559;48.630;9.162;2022-09-27T17:06:10;96069.00;;;8.22;100.00